createdAt,value
2023-03-05T00:01:33.587Z,83.99
2023-03-05T00:04:03.457Z,83.76
2023-03-05T00:06:32.816Z,83.53
2023-03-05T00:09:00.977Z,83.35
2023-03-05T00:11:31.713Z,83.12
2023-03-05T00:14:03.555Z,82.65
2023-03-05T00:16:31.401Z,82.42
2023-03-05T00:19:01.412Z,81.71
2023-03-05T00:21:33.172Z,81.35
2023-03-05T00:24:03.876Z,81.26
2023-03-05T00:26:34.599Z,81.30
2023-03-05T00:29:02.612Z,81.44
2023-03-05T00:31:34.101Z,81.69
2023-03-05T00:34:06.987Z,81.79
2023-03-05T00:36:34.783Z,81.81
2023-03-05T00:39:02.421Z,81.67
2023-03-05T00:41:29.680Z,81.64
2023-03-05T00:43:57.381Z,81.50
2023-03-05T00:46:27.554Z,81.21
2023-03-05T00:48:56.673Z,81.13
2023-03-05T00:51:24.978Z,81.40
2023-03-05T00:53:53.130Z,81.58
2023-03-05T00:56:21.022Z,81.61
2023-03-05T00:58:48.775Z,81.61
2023-03-05T01:01:16.451Z,81.32
2023-03-05T01:03:44.023Z,80.97
2023-03-05T01:06:15.136Z,80.81
2023-03-05T01:08:44.052Z,80.54
2023-03-05T01:11:11.891Z,80.02
2023-03-05T01:13:39.653Z,80.01
2023-03-05T01:16:07.594Z,79.51
2023-03-05T01:18:35.423Z,79.39
2023-03-05T01:21:04.276Z,79.25
2023-03-05T01:23:34.563Z,79.22
2023-03-05T01:26:01.939Z,78.95
2023-03-05T01:28:29.736Z,78.60
2023-03-05T01:30:57.011Z,78.01
2023-03-05T01:33:24.538Z,77.92
2023-03-05T01:35:52.429Z,78.05
2023-03-05T01:38:19.998Z,77.31
2023-03-05T01:40:47.734Z,76.96
2023-03-05T01:43:30.819Z,76.17
2023-03-05T01:46:16.960Z,75.29
2023-03-05T01:48:51.203Z,74.90
2023-03-05T01:51:22.839Z,74.99
2023-03-05T01:53:50.508Z,74.47
2023-03-05T01:56:18.336Z,74.36
2023-03-05T01:58:46.395Z,73.91
2023-03-05T02:01:13.884Z,73.87
2023-03-05T02:03:43.095Z,74.20
2023-03-05T02:06:10.845Z,74.06
2023-03-05T02:08:38.540Z,74.22
2023-03-05T02:11:06.271Z,73.98
2023-03-05T02:13:38.721Z,73.45
2023-03-05T02:16:07.544Z,73.03
2023-03-05T02:18:35.181Z,71.63
2023-03-05T02:21:10.415Z,71.70
2023-03-05T02:23:39.412Z,71.66
2023-03-05T02:26:10.616Z,71.29
2023-03-05T02:28:58.610Z,71.34
2023-03-05T02:31:27.381Z,71.31
2023-03-05T02:33:58.464Z,71.34
2023-03-05T02:36:26.235Z,70.76
2023-03-05T02:38:57.097Z,70.74
2023-03-05T02:41:25.142Z,70.15
2023-03-05T02:43:52.768Z,69.56
2023-03-05T02:46:20.309Z,69.37
2023-03-05T02:48:47.901Z,68.21
2023-03-05T02:51:15.515Z,67.79
2023-03-05T02:53:43.175Z,68.06
2023-03-05T02:56:10.672Z,66.70
2023-03-05T02:58:38.261Z,65.86
2023-03-05T03:01:05.759Z,65.91
2023-03-05T03:03:33.355Z,66.54
2023-03-05T03:06:00.708Z,66.18
2023-03-05T03:08:28.761Z,66.40
2023-03-05T03:10:56.686Z,66.69
2023-03-05T03:13:25.394Z,66.42
2023-03-05T03:16:07.215Z,66.99
2023-03-05T03:18:35.155Z,68.01
2023-03-05T03:21:03.039Z,70.09
2023-03-05T03:23:31.891Z,73.12
2023-03-05T03:25:59.456Z,74.10
2023-03-05T03:28:26.974Z,73.66
2023-03-05T03:30:54.267Z,77.90
2023-03-05T03:33:22.444Z,80.33
2023-03-05T03:35:49.782Z,80.62
2023-03-05T03:38:17.372Z,80.94
2023-03-05T03:40:44.646Z,81.68
2023-03-05T03:43:14.279Z,81.61
2023-03-05T03:45:43.781Z,83.48
2023-03-05T03:48:11.658Z,83.00
2023-03-05T03:50:43.280Z,83.76
2023-03-05T03:53:14.514Z,83.08
2023-03-05T03:55:46.695Z,83.60
2023-03-05T03:58:14.346Z,84.00
2023-03-05T04:00:41.950Z,84.53
2023-03-05T04:03:09.771Z,85.12
2023-03-05T04:05:37.088Z,84.50
2023-03-05T04:08:05.888Z,85.00
2023-03-05T04:10:33.102Z,83.79
2023-03-05T04:13:00.681Z,84.38
2023-03-05T04:15:28.020Z,84.68
2023-03-05T04:17:55.633Z,83.84
2023-03-05T04:20:22.920Z,83.48
2023-03-05T04:22:50.898Z,82.82
2023-03-05T04:25:18.150Z,82.80
2023-03-05T04:27:45.686Z,82.62
2023-03-05T04:30:17.225Z,81.26
2023-03-05T04:32:44.815Z,80.02
2023-03-05T04:35:12.216Z,79.46
2023-03-05T04:37:39.756Z,79.38
2023-03-05T04:40:08.474Z,79.30
2023-03-05T04:42:36.104Z,78.71
2023-03-05T04:45:04.320Z,78.21
2023-03-05T04:47:31.885Z,77.21
2023-03-05T04:49:59.151Z,76.57
2023-03-05T04:52:26.882Z,75.51
2023-03-05T04:54:54.626Z,75.56
2023-03-05T04:57:24.016Z,75.80
2023-03-05T04:59:51.373Z,76.08
2023-03-05T05:02:18.919Z,76.47
2023-03-05T05:04:46.227Z,76.31
2023-03-05T05:07:13.729Z,76.87
2023-03-05T05:09:41.662Z,77.20
2023-03-05T05:12:10.598Z,76.81
2023-03-05T05:14:38.678Z,76.84
2023-03-05T05:17:06.417Z,76.57
2023-03-05T05:19:35.482Z,76.33
2023-03-05T05:22:03.197Z,75.68
2023-03-05T05:24:30.531Z,75.79
2023-03-05T05:26:58.077Z,75.24
2023-03-05T05:29:26.190Z,75.18
2023-03-05T05:31:54.315Z,75.03
2023-03-05T05:34:21.559Z,74.77
2023-03-05T05:36:49.265Z,74.55
2023-03-05T05:39:17.183Z,74.00
2023-03-05T05:41:45.779Z,74.23
2023-03-05T05:44:13.031Z,73.72
2023-03-05T05:46:40.670Z,73.71
2023-03-05T05:49:07.978Z,74.07
2023-03-05T05:51:35.611Z,74.00
2023-03-05T05:54:02.969Z,74.03
2023-03-05T05:56:30.500Z,73.31
2023-03-05T05:58:57.812Z,73.96
2023-03-05T06:01:32.061Z,74.55
2023-03-05T06:04:00.285Z,74.32
2023-03-05T06:06:29.271Z,74.48
2023-03-05T06:08:57.372Z,74.65
2023-03-05T06:11:24.886Z,74.84
2023-03-05T06:13:52.391Z,74.83
2023-03-05T06:16:24.672Z,74.50
2023-03-05T06:18:52.919Z,74.62
2023-03-05T06:21:22.653Z,74.91
2023-03-05T06:23:51.327Z,74.98
2023-03-05T06:26:22.293Z,75.91
2023-03-05T06:28:49.581Z,76.19
2023-03-05T06:31:27.282Z,76.78
2023-03-05T06:34:03.575Z,77.33
2023-03-05T06:36:31.699Z,77.60
2023-03-05T06:38:59.802Z,78.57
2023-03-05T06:41:31.570Z,78.00
2023-03-05T06:44:04.951Z,77.80
2023-03-05T06:46:37.511Z,77.35
2023-03-05T06:49:05.348Z,77.60
2023-03-05T06:51:39.513Z,77.81
2023-03-05T06:54:12.054Z,77.55
2023-03-05T06:56:43.236Z,76.93
2023-03-05T06:59:14.657Z,77.22
2023-03-05T07:01:43.525Z,77.23
2023-03-05T07:04:12.931Z,76.76
2023-03-05T07:06:44.947Z,76.05
2023-03-05T07:09:16.886Z,76.34
2023-03-05T07:11:44.609Z,75.91
2023-03-05T07:14:12.050Z,75.88
2023-03-05T07:16:39.711Z,75.64
2023-03-05T07:19:08.068Z,75.36
2023-03-05T07:21:39.105Z,74.62
2023-03-05T07:24:08.161Z,74.53
2023-03-05T07:26:36.344Z,74.84
2023-03-05T07:29:04.277Z,74.56
2023-03-05T07:31:32.245Z,75.26
2023-03-05T07:34:02.180Z,75.61
2023-03-05T07:36:30.261Z,75.38
2023-03-05T07:38:58.059Z,75.08
2023-03-05T07:41:25.424Z,74.34
2023-03-05T07:43:55.133Z,74.16
2023-03-05T07:46:27.672Z,73.41
2023-03-05T07:48:56.046Z,74.39
2023-03-05T07:51:25.973Z,74.50
2023-03-05T07:53:56.472Z,74.45
2023-03-05T07:56:35.539Z,74.68
2023-03-05T07:59:08.901Z,74.18
2023-03-05T08:01:37.458Z,74.69
2023-03-05T08:04:06.999Z,74.26
2023-03-05T08:06:34.398Z,75.15
2023-03-05T08:09:01.981Z,75.11
2023-03-05T08:11:29.296Z,75.53
2023-03-05T08:13:59.392Z,75.20
2023-03-05T08:16:27.730Z,76.36
2023-03-05T08:18:58.252Z,75.60
2023-03-05T08:21:33.913Z,75.15
2023-03-05T08:24:08.670Z,75.08
2023-03-05T08:26:38.800Z,74.56
2023-03-05T08:29:08.940Z,73.62
2023-03-05T08:31:38.259Z,74.23
2023-03-05T08:34:07.105Z,74.05
2023-03-05T08:36:34.557Z,74.47
2023-03-05T08:39:02.359Z,74.26
2023-03-05T08:41:29.892Z,74.39
2023-03-05T08:43:57.537Z,74.93
2023-03-05T08:46:24.908Z,74.68
2023-03-05T08:48:52.772Z,74.34
2023-03-05T08:51:27.586Z,75.31
2023-03-05T08:53:59.507Z,74.29
2023-03-05T08:56:28.618Z,74.30
2023-03-05T08:58:56.188Z,74.57
2023-03-05T09:01:24.155Z,74.64
2023-03-05T09:03:51.954Z,73.88
2023-03-05T09:06:19.625Z,74.65
2023-03-05T09:08:47.323Z,74.46
2023-03-05T09:11:14.998Z,73.75
2023-03-05T09:13:43.011Z,73.50
2023-03-05T09:16:16.711Z,73.88
2023-03-05T09:18:44.934Z,73.55
2023-03-05T09:21:18.376Z,75.27
2023-03-05T09:23:49.630Z,75.45
2023-03-05T09:26:21.705Z,75.29
2023-03-05T09:28:49.611Z,76.02
2023-03-05T09:31:17.604Z,76.51
2023-03-05T09:33:45.502Z,76.63
2023-03-05T09:36:25.306Z,78.45
2023-03-05T09:38:54.351Z,78.94
2023-03-05T09:41:53.648Z,79.79
2023-03-05T09:44:52.089Z,79.69
2023-03-05T09:47:46.828Z,80.76
2023-03-05T09:50:33.261Z,81.58
2023-03-05T09:53:18.059Z,82.91
2023-03-05T09:55:55.585Z,84.12
2023-03-05T09:58:43.540Z,85.32
2023-03-05T10:01:24.316Z,86.01
2023-03-05T10:03:59.907Z,85.96
2023-03-05T10:06:41.945Z,86.26
2023-03-05T10:09:12.160Z,86.05
2023-03-05T10:12:03.282Z,85.40
2023-03-05T10:14:35.261Z,84.91
2023-03-05T10:17:23.892Z,84.25
2023-03-05T10:20:15.531Z,85.04
2023-03-05T10:23:04.702Z,85.02
2023-03-05T10:25:53.603Z,83.76
2023-03-05T10:28:57.492Z,82.31
2023-03-05T10:31:30.965Z,81.38
2023-03-05T10:34:28.115Z,81.82
2023-03-05T10:37:21.426Z,81.80
2023-03-05T10:40:32.727Z,81.57
2023-03-05T10:43:36.828Z,81.09
2023-03-05T10:46:05.496Z,81.88
2023-03-05T10:48:59.851Z,81.22
2023-03-05T10:51:53.769Z,81.11
2023-03-05T10:54:41.944Z,81.03
2023-03-05T10:57:25.709Z,81.38
2023-03-05T11:00:01.225Z,81.75
2023-03-05T11:02:28.908Z,80.76
2023-03-05T11:04:56.370Z,78.99
2023-03-05T11:07:24.079Z,78.12
2023-03-05T11:10:17.532Z,78.28
2023-03-05T11:12:45.935Z,78.15
2023-03-05T11:15:13.205Z,77.64
2023-03-05T11:18:04.094Z,76.49
2023-03-05T11:20:36.641Z,75.87
2023-03-05T11:23:15.793Z,74.90
2023-03-05T11:25:55.877Z,74.17
2023-03-05T11:28:34.249Z,72.65
2023-03-05T11:31:15.906Z,72.92
2023-03-05T11:34:29.098Z,72.77
2023-03-05T11:36:57.060Z,71.83
2023-03-05T11:39:30.477Z,70.70
2023-03-05T11:42:15.979Z,70.98
2023-03-05T11:44:56.034Z,69.96
2023-03-05T11:47:32.400Z,68.93
2023-03-05T11:50:19.118Z,65.27
2023-03-05T11:52:54.727Z,65.29
2023-03-05T11:55:28.811Z,63.38
2023-03-05T11:58:28.333Z,63.76
2023-03-05T12:00:57.248Z,63.52
2023-03-05T12:03:45.342Z,63.09
2023-03-05T12:06:55.789Z,64.40
2023-03-05T12:09:47.912Z,63.44
2023-03-05T12:12:53.007Z,63.29
2023-03-05T12:15:35.106Z,64.19
2023-03-05T12:18:43.884Z,63.59
2023-03-05T12:21:34.767Z,61.49
2023-03-05T12:24:24.331Z,60.22
2023-03-05T12:27:02.325Z,40.80
2023-03-05T12:29:45.428Z,30.26
2023-03-05T12:32:33.052Z,23.99
2023-03-05T12:35:04.464Z,20.74
2023-03-05T12:37:31.735Z,19.13
2023-03-05T12:40:23.241Z,18.79
2023-03-05T12:42:59.690Z,18.89
2023-03-05T12:45:38.193Z,18.71
2023-03-05T12:48:10.847Z,17.50
2023-03-05T12:50:38.545Z,19.84
2023-03-05T12:53:21.108Z,22.67
2023-03-05T12:56:22.298Z,24.83
2023-03-05T12:58:58.795Z,27.17
2023-03-05T13:01:36.490Z,29.46
2023-03-05T13:04:28.410Z,32.70
2023-03-05T13:07:07.370Z,34.76
2023-03-05T13:09:36.413Z,36.85
2023-03-05T13:12:13.221Z,39.05
2023-03-05T13:15:15.701Z,41.01
2023-03-05T13:18:03.603Z,42.11
2023-03-05T13:20:42.792Z,42.47
2023-03-05T13:23:27.454Z,44.86
2023-03-05T13:26:20.016Z,46.48
2023-03-05T13:29:11.659Z,48.98
2023-03-05T13:31:56.462Z,49.54
2023-03-05T13:34:44.682Z,49.76
2023-03-05T13:37:25.112Z,49.97
2023-03-05T13:39:59.752Z,48.79
2023-03-05T13:42:34.682Z,49.64
2023-03-05T13:45:28.912Z,49.87
2023-03-05T13:48:03.066Z,50.07
2023-03-05T13:50:40.503Z,50.26
2023-03-05T13:53:31.395Z,49.32
2023-03-05T13:56:03.780Z,49.65
2023-03-05T13:58:52.756Z,50.04
2023-03-05T14:01:40.760Z,50.87
2023-03-05T14:04:15.635Z,51.59
2023-03-05T14:06:58.356Z,51.88
2023-03-05T14:09:32.062Z,52.63
2023-03-05T14:12:38.055Z,53.71
2023-03-05T14:15:29.509Z,54.82
2023-03-05T14:18:12.003Z,55.86
2023-03-05T14:20:59.109Z,56.63
2023-03-05T14:23:38.935Z,57.44
2023-03-05T14:26:34.476Z,57.79
2023-03-05T14:29:07.086Z,58.18
2023-03-05T14:31:56.470Z,58.54
2023-03-05T14:34:31.886Z,58.25
2023-03-05T14:37:17.526Z,58.68
2023-03-05T14:39:55.044Z,59.08
2023-03-05T14:42:49.915Z,59.62
2023-03-05T14:45:22.377Z,59.70
2023-03-05T14:47:56.132Z,59.92
2023-03-05T14:50:32.231Z,59.88
2023-03-05T14:53:06.844Z,59.47
2023-03-05T14:55:38.389Z,59.62
2023-03-05T14:58:15.429Z,59.12
2023-03-05T15:00:44.474Z,59.78
2023-03-05T15:03:17.590Z,60.23
2023-03-05T15:05:51.138Z,60.12
2023-03-05T15:08:30.481Z,60.97
2023-03-05T15:11:00.125Z,61.99
2023-03-05T15:13:28.074Z,62.83
2023-03-05T15:15:56.073Z,63.89
2023-03-05T15:18:23.917Z,64.49
2023-03-05T15:20:54.967Z,64.99
2023-03-05T15:23:22.312Z,66.18
2023-03-05T15:25:50.966Z,66.90
2023-03-05T15:28:18.819Z,66.80
2023-03-05T15:30:48.093Z,66.99
2023-03-05T15:33:17.863Z,66.81
2023-03-05T15:35:46.281Z,66.78
2023-03-05T15:38:13.700Z,66.46
2023-03-05T15:40:41.586Z,67.27
2023-03-05T15:43:09.781Z,67.98
2023-03-05T15:45:37.653Z,68.32
2023-03-05T15:48:05.183Z,68.54
2023-03-05T15:50:32.996Z,69.41
2023-03-05T15:53:00.380Z,72.26
2023-03-05T15:55:28.002Z,76.83
2023-03-05T15:57:55.518Z,77.62
2023-03-05T16:00:31.119Z,78.83
2023-03-05T16:02:58.706Z,78.64
2023-03-05T16:05:26.576Z,78.65
2023-03-05T16:07:54.962Z,78.53
2023-03-05T16:10:29.513Z,79.02
2023-03-05T16:13:13.610Z,79.20
2023-03-05T16:15:43.307Z,79.72
2023-03-05T16:18:16.758Z,80.07
2023-03-05T16:20:45.593Z,79.05
2023-03-05T16:23:12.877Z,79.33
2023-03-05T16:25:40.512Z,80.16
2023-03-05T16:28:07.830Z,79.76
2023-03-05T16:30:35.427Z,80.19
2023-03-05T16:33:02.664Z,80.33
2023-03-05T16:35:30.918Z,79.37
2023-03-05T16:37:58.735Z,80.14
2023-03-05T16:40:34.259Z,79.89
2023-03-05T16:43:11.975Z,79.50
2023-03-05T16:45:39.564Z,79.61
2023-03-05T16:48:07.111Z,80.01
2023-03-05T16:50:34.713Z,79.63
2023-03-05T16:53:02.005Z,80.27
2023-03-05T16:55:29.664Z,80.53
2023-03-05T16:57:56.976Z,80.39
2023-03-05T17:00:24.907Z,80.91
2023-03-05T17:02:52.261Z,80.57
2023-03-05T17:05:19.981Z,80.46
2023-03-05T17:07:47.468Z,80.11
2023-03-05T17:10:15.686Z,80.24
2023-03-05T17:12:43.791Z,80.11
2023-03-05T17:15:11.565Z,80.47
2023-03-05T17:17:39.632Z,80.22
2023-03-05T17:20:08.606Z,80.01
2023-03-05T17:22:35.983Z,80.13
2023-03-05T17:25:03.698Z,80.15
2023-03-05T17:27:31.072Z,81.01
2023-03-05T17:29:58.846Z,81.90
2023-03-05T17:32:26.400Z,83.15
2023-03-05T17:34:55.828Z,83.21
2023-03-05T17:37:23.879Z,84.01
2023-03-05T17:39:51.518Z,84.56
2023-03-05T17:42:21.631Z,84.13
2023-03-05T17:47:23.351Z,85.21
2023-03-05T17:49:51.427Z,84.77
2023-03-05T17:52:21.086Z,84.81
2023-03-05T17:54:50.526Z,84.81
2023-03-05T17:57:17.865Z,84.72
2023-03-05T17:59:45.990Z,84.46
2023-03-05T18:02:13.420Z,85.07
2023-03-05T18:04:41.378Z,84.54
2023-03-05T18:07:08.654Z,84.59
2023-03-05T18:09:36.557Z,84.83
2023-03-05T18:12:04.090Z,85.20
2023-03-05T18:14:31.762Z,85.28
2023-03-05T18:17:00.349Z,85.08
2023-03-05T18:19:27.982Z,84.96
2023-03-05T18:21:55.335Z,85.00
2023-03-05T18:24:23.005Z,84.97
2023-03-05T18:26:50.345Z,84.45
2023-03-05T18:29:18.850Z,84.76
2023-03-05T18:31:46.333Z,83.84
2023-03-05T18:34:13.978Z,84.48
2023-03-05T18:36:41.463Z,84.29
2023-03-05T18:39:12.167Z,84.35
2023-03-05T18:41:42.406Z,84.73
2023-03-05T18:44:10.191Z,84.63
2023-03-05T18:46:37.622Z,84.54
2023-03-05T18:49:05.153Z,84.85
2023-03-05T18:51:33.859Z,84.88
2023-03-05T18:54:02.463Z,84.61
2023-03-05T18:56:30.196Z,84.43
2023-03-05T18:58:58.934Z,84.56
2023-03-05T19:01:26.800Z,84.27
2023-03-05T19:03:54.810Z,84.07
2023-03-05T19:06:22.118Z,84.53
2023-03-05T19:08:56.995Z,85.38
2023-03-05T19:11:25.274Z,85.38
2023-03-05T19:13:53.011Z,85.28
2023-03-05T19:16:24.733Z,85.55
2023-03-05T19:19:13.812Z,85.93
2023-03-05T19:22:04.133Z,85.77
2023-03-05T19:24:32.605Z,85.85
2023-03-05T19:27:01.512Z,85.99
2023-03-05T19:29:33.151Z,85.82
2023-03-05T19:32:00.672Z,85.98
2023-03-05T19:34:28.365Z,85.46
2023-03-05T19:36:55.997Z,85.19
2023-03-05T19:39:23.714Z,86.01
2023-03-05T19:41:51.660Z,85.78
2023-03-05T19:44:19.463Z,85.93
2023-03-05T19:46:48.633Z,85.93
2023-03-05T19:49:18.365Z,86.26
2023-03-05T19:51:46.613Z,86.04
2023-03-05T19:54:17.182Z,85.56
2023-03-05T19:56:46.556Z,85.61
2023-03-05T19:59:21.148Z,85.36
2023-03-05T20:01:50.040Z,85.42
2023-03-05T20:04:21.960Z,85.14
2023-03-05T20:06:49.536Z,85.00
2023-03-05T20:09:17.750Z,84.84
2023-03-05T20:11:45.318Z,84.75
2023-03-05T20:14:14.803Z,84.83
2023-03-05T20:16:43.460Z,84.50
2023-03-05T20:19:18.092Z,84.55
2023-03-05T20:21:45.914Z,84.26
2023-03-05T20:24:19.072Z,84.18
2023-03-05T20:26:47.528Z,84.43
2023-03-05T20:29:18.128Z,84.42
2023-03-05T20:31:47.430Z,84.28
2023-03-05T20:34:18.781Z,84.21
2023-03-05T20:36:46.740Z,84.24
2023-03-05T20:39:14.420Z,84.01
2023-03-05T20:41:42.082Z,83.73
2023-03-05T20:44:11.492Z,83.76
2023-03-05T20:46:49.692Z,83.73
2023-03-05T20:49:18.175Z,83.43
2023-03-05T20:51:50.350Z,83.14
2023-03-05T20:54:18.050Z,83.09
2023-03-05T20:56:45.418Z,83.03
2023-03-05T20:59:13.307Z,82.58
2023-03-05T21:01:41.152Z,82.43
2023-03-05T21:04:09.392Z,82.35
2023-03-05T21:06:37.152Z,82.25
2023-03-05T21:09:05.608Z,82.09
2023-03-05T21:11:35.573Z,82.06
2023-03-05T21:14:03.410Z,81.98
2023-03-05T21:16:30.882Z,82.22
2023-03-05T21:18:58.536Z,82.38
2023-03-05T21:21:25.942Z,82.14
2023-03-05T21:23:53.722Z,82.51
2023-03-05T21:26:21.394Z,82.50
2023-03-05T21:28:49.222Z,82.13
2023-03-05T21:31:21.286Z,81.92
2023-03-05T21:33:49.890Z,82.05
2023-03-05T21:36:18.944Z,82.14
2023-03-05T21:38:49.089Z,82.00
2023-03-05T21:41:18.314Z,82.20
2023-03-05T21:43:46.326Z,81.97
2023-03-05T21:46:14.784Z,81.88
2023-03-05T21:48:42.376Z,82.10
2023-03-05T21:51:11.550Z,82.07
2023-03-05T21:53:39.338Z,82.21
2023-03-05T21:56:17.938Z,82.10
2023-03-05T21:58:45.846Z,82.11
2023-03-05T22:01:16.338Z,82.14
2023-03-05T22:03:44.082Z,82.08
2023-03-05T22:06:14.731Z,82.02
2023-03-05T22:08:42.651Z,82.03
2023-03-05T22:11:13.392Z,81.80
2023-03-05T22:13:41.917Z,81.60
2023-03-05T22:16:10.583Z,81.69
2023-03-05T22:18:38.418Z,81.83
2023-03-05T22:21:14.585Z,82.11
2023-03-05T22:23:42.185Z,82.33
2023-03-05T22:26:09.527Z,81.95
2023-03-05T22:28:39.087Z,82.20
2023-03-05T22:31:06.797Z,81.98
2023-03-05T22:33:34.730Z,82.06
2023-03-05T22:36:10.024Z,82.36
2023-03-05T22:38:37.721Z,82.56
2023-03-05T22:41:11.730Z,82.58
2023-03-05T22:43:40.359Z,82.51
2023-03-05T22:46:21.146Z,82.48
2023-03-05T22:48:49.132Z,82.39
2023-03-05T22:51:18.468Z,82.08
2023-03-05T22:53:46.888Z,82.45
2023-03-05T22:56:18.401Z,82.50
2023-03-05T22:58:45.982Z,82.26
2023-03-05T23:01:25.538Z,82.27
2023-03-05T23:03:58.726Z,82.54
2023-03-05T23:06:26.142Z,82.47
2023-03-05T23:08:53.756Z,82.90
2023-03-05T23:11:21.326Z,83.05
2023-03-05T23:13:48.828Z,83.07
2023-03-05T23:16:16.174Z,83.17
2023-03-05T23:18:43.785Z,83.11
2023-03-05T23:21:11.129Z,83.22
2023-03-05T23:23:38.734Z,83.05
2023-03-05T23:26:06.146Z,83.11
2023-03-05T23:28:33.854Z,83.06
2023-03-05T23:31:02.338Z,82.80
2023-03-05T23:33:30.173Z,83.19
2023-03-05T23:36:00.707Z,83.25
2023-03-05T23:38:30.549Z,83.15
2023-03-05T23:41:01.249Z,83.61
2023-03-05T23:43:29.924Z,83.61
2023-03-05T23:45:57.481Z,83.38
2023-03-05T23:48:27.223Z,83.23
2023-03-05T23:50:55.588Z,83.04
2023-03-05T23:53:31.203Z,83.11
2023-03-05T23:55:58.674Z,83.45
2023-03-05T23:58:26.372Z,83.50
